sensor_id;sensor_type;location;lat;lon;timestamp;temperature;humidity
60727;DHT22;46577;49.004;12.120;2022-12-31T00:01:19;7.10;99.90
60727;DHT22;46577;49.004;12.120;2022-12-31T00:03:45;7.10;99.90
60727;DHT22;46577;49.004;12.120;2022-12-31T00:06:25;7.10;99.90
60727;DHT22;46577;49.004;12.120;2022-12-31T00:08:51;7.10;99.90
60727;DHT22;46577;49.004;12.120;2022-12-31T00:11:18;7.10;99.90
60727;DHT22;46577;49.004;12.120;2022-12-31T00:13:44;7.10;99.90
60727;DHT22;46577;49.004;12.120;2022-12-31T00:18:46;7.10;99.90
60727;DHT22;46577;49.004;12.120;2022-12-31T00:21:12;7.30;99.90
60727;DHT22;46577;49.004;12.120;2022-12-31T00:23:38;7.00;99.90
60727;DHT22;46577;49.004;12.120;2022-12-31T00:26:09;7.00;99.90
60727;DHT22;46577;49.004;12.120;2022-12-31T00:28:36;7.00;99.90
60727;DHT22;46577;49.004;12.120;2022-12-31T00:33:35;7.00;99.90
60727;DHT22;46577;49.004;12.120;2022-12-31T00:36:22;7.00;99.90
60727;DHT22;46577;49.004;12.120;2022-12-31T00:38:50;7.00;99.90
60727;DHT22;46577;49.004;12.120;2022-12-31T00:41:17;7.00;99.90
60727;DHT22;46577;49.004;12.120;2022-12-31T00:43:43;7.00;99.90
60727;DHT22;46577;49.004;12.120;2022-12-31T00:46:10;7.00;99.90
60727;DHT22;46577;49.004;12.120;2022-12-31T00:48:36;7.00;99.90
60727;DHT22;46577;49.004;12.120;2022-12-31T00:51:04;7.00;99.90
60727;DHT22;46577;49.004;12.120;2022-12-31T00:53:31;7.00;99.90
60727;DHT22;46577;49.004;12.120;2022-12-31T00:56:05;7.00;99.90
60727;DHT22;46577;49.004;12.120;2022-12-31T00:58:31;7.00;99.90
60727;DHT22;46577;49.004;12.120;2022-12-31T01:00:56;7.00;99.90
60727;DHT22;46577;49.004;12.120;2022-12-31T01:03:23;8.50;99.90
60727;DHT22;46577;49.004;12.120;2022-12-31T01:05:48;7.70;99.90
60727;DHT22;46577;49.004;12.120;2022-12-31T01:08:15;7.10;99.90
60727;DHT22;46577;49.004;12.120;2022-12-31T01:10:41;7.10;99.90
60727;DHT22;46577;49.004;12.120;2022-12-31T01:13:25;7.90;99.90
60727;DHT22;46577;49.004;12.120;2022-12-31T01:15:51;7.10;99.90
60727;DHT22;46577;49.004;12.120;2022-12-31T01:18:16;7.10;99.90
60727;DHT22;46577;49.004;12.120;2022-12-31T01:20:42;7.10;99.90
60727;DHT22;46577;49.004;12.120;2022-12-31T01:23:09;7.20;99.90
60727;DHT22;46577;49.004;12.120;2022-12-31T01:25:36;7.20;99.90
60727;DHT22;46577;49.004;12.120;2022-12-31T01:28:03;7.20;99.90
60727;DHT22;46577;49.004;12.120;2022-12-31T01:30:29;7.30;99.90
60727;DHT22;46577;49.004;12.120;2022-12-31T01:32:55;7.30;99.90
60727;DHT22;46577;49.004;12.120;2022-12-31T01:35:21;7.30;99.90
60727;DHT22;46577;49.004;12.120;2022-12-31T01:37:46;7.20;99.90
60727;DHT22;46577;49.004;12.120;2022-12-31T01:40:12;7.20;99.90
60727;DHT22;46577;49.004;12.120;2022-12-31T01:42:38;7.20;99.90
60727;DHT22;46577;49.004;12.120;2022-12-31T01:45:09;7.20;99.90
60727;DHT22;46577;49.004;12.120;2022-12-31T01:47:47;7.20;99.90
60727;DHT22;46577;49.004;12.120;2022-12-31T01:50:24;7.20;99.90
60727;DHT22;46577;49.004;12.120;2022-12-31T01:52:55;7.30;99.90
60727;DHT22;46577;49.004;12.120;2022-12-31T01:55:31;7.30;99.90
60727;DHT22;46577;49.004;12.120;2022-12-31T01:58:05;7.30;99.90
60727;DHT22;46577;49.004;12.120;2022-12-31T02:00:32;7.20;99.90
60727;DHT22;46577;49.004;12.120;2022-12-31T02:02:58;7.20;99.90
60727;DHT22;46577;49.004;12.120;2022-12-31T02:05:52;7.10;99.90
60727;DHT22;46577;49.004;12.120;2022-12-31T02:08:19;7.10;99.90
60727;DHT22;46577;49.004;12.120;2022-12-31T02:10:45;7.00;99.90
60727;DHT22;46577;49.004;12.120;2022-12-31T02:13:11;7.00;99.90
60727;DHT22;46577;49.004;12.120;2022-12-31T02:18:30;6.90;99.90
60727;DHT22;46577;49.004;12.120;2022-12-31T02:24:01;6.90;99.90
60727;DHT22;46577;49.004;12.120;2022-12-31T02:26:40;6.90;99.90
60727;DHT22;46577;49.004;12.120;2022-12-31T02:31:59;6.90;99.90
60727;DHT22;46577;49.004;12.120;2022-12-31T02:34:31;6.90;99.90
60727;DHT22;46577;49.004;12.120;2022-12-31T02:36:59;6.90;99.90
60727;DHT22;46577;49.004;12.120;2022-12-31T02:39:25;7.00;99.90
60727;DHT22;46577;49.004;12.120;2022-12-31T02:41:53;7.00;99.90
60727;DHT22;46577;49.004;12.120;2022-12-31T02:56:08;7.20;99.90
60727;DHT22;46577;49.004;12.120;2022-12-31T03:01:40;7.20;99.90
60727;DHT22;46577;49.004;12.120;2022-12-31T03:04:27;7.30;99.90
60727;DHT22;46577;49.004;12.120;2022-12-31T03:07:09;7.30;99.90
60727;DHT22;46577;49.004;12.120;2022-12-31T03:09:35;7.30;99.90
60727;DHT22;46577;49.004;12.120;2022-12-31T03:12:02;7.40;99.90
60727;DHT22;46577;49.004;12.120;2022-12-31T03:14:48;7.40;99.90
60727;DHT22;46577;49.004;12.120;2022-12-31T03:17:14;7.30;99.90
60727;DHT22;46577;49.004;12.120;2022-12-31T03:19:39;7.40;99.90
60727;DHT22;46577;49.004;12.120;2022-12-31T03:22:24;7.40;99.90
60727;DHT22;46577;49.004;12.120;2022-12-31T03:24:57;7.40;99.90
60727;DHT22;46577;49.004;12.120;2022-12-31T03:27:43;7.40;99.90
60727;DHT22;46577;49.004;12.120;2022-12-31T03:30:09;7.40;99.90
60727;DHT22;46577;49.004;12.120;2022-12-31T03:32:35;7.40;99.90
60727;DHT22;46577;49.004;12.120;2022-12-31T03:35:01;7.30;99.90
60727;DHT22;46577;49.004;12.120;2022-12-31T03:37:26;7.40;99.90
60727;DHT22;46577;49.004;12.120;2022-12-31T03:39:52;7.40;99.90
60727;DHT22;46577;49.004;12.120;2022-12-31T03:42:17;7.40;99.90
60727;DHT22;46577;49.004;12.120;2022-12-31T03:44:43;7.50;99.90
60727;DHT22;46577;49.004;12.120;2022-12-31T03:47:09;7.50;99.90
60727;DHT22;46577;49.004;12.120;2022-12-31T03:49:34;7.50;99.90
60727;DHT22;46577;49.004;12.120;2022-12-31T03:52:00;7.50;99.90
60727;DHT22;46577;49.004;12.120;2022-12-31T03:54:27;7.70;99.90
60727;DHT22;46577;49.004;12.120;2022-12-31T03:56:53;7.60;99.90
60727;DHT22;46577;49.004;12.120;2022-12-31T03:59:18;7.70;99.90
60727;DHT22;46577;49.004;12.120;2022-12-31T04:01:44;7.60;99.90
60727;DHT22;46577;49.004;12.120;2022-12-31T04:04:09;7.70;99.90
60727;DHT22;46577;49.004;12.120;2022-12-31T04:06:35;7.60;99.90
60727;DHT22;46577;49.004;12.120;2022-12-31T04:09:00;7.70;99.90
60727;DHT22;46577;49.004;12.120;2022-12-31T04:11:26;7.70;99.90
60727;DHT22;46577;49.004;12.120;2022-12-31T04:13:51;7.60;99.90
60727;DHT22;46577;49.004;12.120;2022-12-31T04:16:17;7.60;99.90
60727;DHT22;46577;49.004;12.120;2022-12-31T04:18:42;7.60;99.90
60727;DHT22;46577;49.004;12.120;2022-12-31T04:21:08;7.60;99.90
60727;DHT22;46577;49.004;12.120;2022-12-31T04:23:34;7.50;99.90
60727;DHT22;46577;49.004;12.120;2022-12-31T04:25:59;7.40;99.90
60727;DHT22;46577;49.004;12.120;2022-12-31T04:28:25;7.40;99.90
60727;DHT22;46577;49.004;12.120;2022-12-31T04:30:50;7.40;99.90
60727;DHT22;46577;49.004;12.120;2022-12-31T04:33:16;7.30;99.90
60727;DHT22;46577;49.004;12.120;2022-12-31T04:35:42;7.20;99.90
60727;DHT22;46577;49.004;12.120;2022-12-31T04:38:07;7.10;99.90
60727;DHT22;46577;49.004;12.120;2022-12-31T04:40:33;7.10;99.90
60727;DHT22;46577;49.004;12.120;2022-12-31T04:42:58;6.90;99.90
60727;DHT22;46577;49.004;12.120;2022-12-31T04:45:24;6.90;99.90
60727;DHT22;46577;49.004;12.120;2022-12-31T04:47:49;7.10;99.90
60727;DHT22;46577;49.004;12.120;2022-12-31T04:50:15;7.00;99.90
60727;DHT22;46577;49.004;12.120;2022-12-31T04:52:41;7.00;99.90
60727;DHT22;46577;49.004;12.120;2022-12-31T04:55:06;7.00;99.90
60727;DHT22;46577;49.004;12.120;2022-12-31T04:57:32;7.00;99.90
60727;DHT22;46577;49.004;12.120;2022-12-31T04:59:58;7.10;99.90
60727;DHT22;46577;49.004;12.120;2022-12-31T05:02:23;7.20;99.90
60727;DHT22;46577;49.004;12.120;2022-12-31T05:04:49;7.30;99.90
60727;DHT22;46577;49.004;12.120;2022-12-31T05:07:14;7.40;99.90
60727;DHT22;46577;49.004;12.120;2022-12-31T05:09:40;7.40;99.90
60727;DHT22;46577;49.004;12.120;2022-12-31T05:12:05;7.40;99.90
60727;DHT22;46577;49.004;12.120;2022-12-31T05:14:31;7.50;99.90
60727;DHT22;46577;49.004;12.120;2022-12-31T05:16:57;7.50;99.90
60727;DHT22;46577;49.004;12.120;2022-12-31T05:19:23;7.50;99.90
60727;DHT22;46577;49.004;12.120;2022-12-31T05:21:49;7.60;99.90
60727;DHT22;46577;49.004;12.120;2022-12-31T05:24:34;7.60;99.90
60727;DHT22;46577;49.004;12.120;2022-12-31T05:27:00;7.90;99.90
60727;DHT22;46577;49.004;12.120;2022-12-31T05:29:26;7.80;99.90
60727;DHT22;46577;49.004;12.120;2022-12-31T05:31:51;7.70;99.90
60727;DHT22;46577;49.004;12.120;2022-12-31T05:34:17;7.80;99.90
60727;DHT22;46577;49.004;12.120;2022-12-31T05:36:42;7.80;99.90
60727;DHT22;46577;49.004;12.120;2022-12-31T05:39:08;7.80;99.90
60727;DHT22;46577;49.004;12.120;2022-12-31T05:41:33;7.80;99.90
60727;DHT22;46577;49.004;12.120;2022-12-31T05:43:59;6.70;99.90
60727;DHT22;46577;49.004;12.120;2022-12-31T05:46:25;7.80;99.90
60727;DHT22;46577;49.004;12.120;2022-12-31T05:48:50;7.80;99.90
60727;DHT22;46577;49.004;12.120;2022-12-31T05:51:16;7.70;99.90
60727;DHT22;46577;49.004;12.120;2022-12-31T05:53:41;7.60;99.90
60727;DHT22;46577;49.004;12.120;2022-12-31T05:56:07;7.50;99.90
60727;DHT22;46577;49.004;12.120;2022-12-31T05:58:32;7.50;99.90
60727;DHT22;46577;49.004;12.120;2022-12-31T06:00:58;7.60;99.90
60727;DHT22;46577;49.004;12.120;2022-12-31T06:03:23;7.60;99.90
60727;DHT22;46577;49.004;12.120;2022-12-31T06:05:49;7.60;99.90
60727;DHT22;46577;49.004;12.120;2022-12-31T06:08:15;7.60;99.90
60727;DHT22;46577;49.004;12.120;2022-12-31T06:10:40;7.70;99.90
60727;DHT22;46577;49.004;12.120;2022-12-31T06:13:06;7.70;99.90
60727;DHT22;46577;49.004;12.120;2022-12-31T06:15:32;7.80;99.90
60727;DHT22;46577;49.004;12.120;2022-12-31T06:17:57;7.70;99.90
60727;DHT22;46577;49.004;12.120;2022-12-31T06:20:23;7.80;99.90
60727;DHT22;46577;49.004;12.120;2022-12-31T06:22:48;7.80;99.90
60727;DHT22;46577;49.004;12.120;2022-12-31T06:25:14;7.80;99.90
60727;DHT22;46577;49.004;12.120;2022-12-31T06:27:40;7.70;99.90
60727;DHT22;46577;49.004;12.120;2022-12-31T06:30:06;7.70;99.90
60727;DHT22;46577;49.004;12.120;2022-12-31T06:32:32;9.90;99.90
60727;DHT22;46577;49.004;12.120;2022-12-31T06:34:59;7.70;99.90
60727;DHT22;46577;49.004;12.120;2022-12-31T06:37:24;7.70;99.90
60727;DHT22;46577;49.004;12.120;2022-12-31T06:39:50;7.80;99.90
60727;DHT22;46577;49.004;12.120;2022-12-31T06:42:15;7.80;99.90
60727;DHT22;46577;49.004;12.120;2022-12-31T06:44:41;7.80;99.90
60727;DHT22;46577;49.004;12.120;2022-12-31T06:47:06;7.70;99.90
60727;DHT22;46577;49.004;12.120;2022-12-31T06:49:32;7.80;99.90
60727;DHT22;46577;49.004;12.120;2022-12-31T06:51:58;7.60;99.90
60727;DHT22;46577;49.004;12.120;2022-12-31T06:54:23;7.60;99.90
60727;DHT22;46577;49.004;12.120;2022-12-31T06:56:49;7.60;99.90
60727;DHT22;46577;49.004;12.120;2022-12-31T06:59:26;7.50;99.90
60727;DHT22;46577;49.004;12.120;2022-12-31T07:02:16;7.50;99.90
60727;DHT22;46577;49.004;12.120;2022-12-31T07:05:12;7.40;99.90
60727;DHT22;46577;49.004;12.120;2022-12-31T07:07:59;7.40;99.90
60727;DHT22;46577;49.004;12.120;2022-12-31T07:21:43;7.30;99.90
60727;DHT22;46577;49.004;12.120;2022-12-31T07:24:10;7.30;99.90
60727;DHT22;46577;49.004;12.120;2022-12-31T07:40:50;7.40;99.90
60727;DHT22;46577;49.004;12.120;2022-12-31T07:48:47;7.70;99.90
60727;DHT22;46577;49.004;12.120;2022-12-31T07:51:12;7.70;99.90
60727;DHT22;46577;49.004;12.120;2022-12-31T07:53:38;7.80;99.90
60727;DHT22;46577;49.004;12.120;2022-12-31T07:56:05;7.80;99.90
60727;DHT22;46577;49.004;12.120;2022-12-31T08:01:40;7.70;99.90
60727;DHT22;46577;49.004;12.120;2022-12-31T08:04:20;7.70;99.90
60727;DHT22;46577;49.004;12.120;2022-12-31T08:07:02;7.80;99.90
60727;DHT22;46577;49.004;12.120;2022-12-31T08:09:43;7.90;99.90
60727;DHT22;46577;49.004;12.120;2022-12-31T08:12:11;8.30;99.90
60727;DHT22;46577;49.004;12.120;2022-12-31T08:14:42;8.30;99.90
60727;DHT22;46577;49.004;12.120;2022-12-31T08:17:16;8.50;99.90
60727;DHT22;46577;49.004;12.120;2022-12-31T08:19:43;8.70;99.90
60727;DHT22;46577;49.004;12.120;2022-12-31T08:28:11;9.50;99.90
60727;DHT22;46577;49.004;12.120;2022-12-31T08:30:53;9.50;99.90
60727;DHT22;46577;49.004;12.120;2022-12-31T08:33:39;9.60;99.90
60727;DHT22;46577;49.004;12.120;2022-12-31T08:36:24;9.70;99.90
60727;DHT22;46577;49.004;12.120;2022-12-31T08:39:03;9.80;99.90
60727;DHT22;46577;49.004;12.120;2022-12-31T08:41:40;9.90;99.90
60727;DHT22;46577;49.004;12.120;2022-12-31T08:44:50;10.10;99.90
60727;DHT22;46577;49.004;12.120;2022-12-31T08:49:32;10.30;99.90
60727;DHT22;46577;49.004;12.120;2022-12-31T08:51:59;10.50;99.90
60727;DHT22;46577;49.004;12.120;2022-12-31T08:54:25;11.90;99.90
60727;DHT22;46577;49.004;12.120;2022-12-31T09:00:04;14.70;99.90
60727;DHT22;46577;49.004;12.120;2022-12-31T09:05:23;17.70;99.90
60727;DHT22;46577;49.004;12.120;2022-12-31T09:13:08;17.80;96.50
60727;DHT22;46577;49.004;12.120;2022-12-31T09:18:23;19.40;93.80
60727;DHT22;46577;49.004;12.120;2022-12-31T09:20:49;20.20;91.10
60727;DHT22;46577;49.004;12.120;2022-12-31T09:23:15;20.90;88.20
60727;DHT22;46577;49.004;12.120;2022-12-31T09:31:38;22.00;77.10
60727;DHT22;46577;49.004;12.120;2022-12-31T09:34:16;22.40;75.80
60727;DHT22;46577;49.004;12.120;2022-12-31T09:37:08;23.00;70.90
60727;DHT22;46577;49.004;12.120;2022-12-31T09:39:43;23.50;69.00
60727;DHT22;46577;49.004;12.120;2022-12-31T09:45:38;24.80;63.00
60727;DHT22;46577;49.004;12.120;2022-12-31T09:48:33;24.00;62.00
60727;DHT22;46577;49.004;12.120;2022-12-31T09:59:34;20.80;69.80
60727;DHT22;46577;49.004;12.120;2022-12-31T10:07:59;14.50;99.90
60727;DHT22;46577;49.004;12.120;2022-12-31T10:10:55;13.70;99.90
60727;DHT22;46577;49.004;12.120;2022-12-31T10:16:40;13.50;99.90
60727;DHT22;46577;49.004;12.120;2022-12-31T10:27:27;13.70;99.90
60727;DHT22;46577;49.004;12.120;2022-12-31T10:30:04;13.20;99.90
60727;DHT22;46577;49.004;12.120;2022-12-31T10:32:43;13.10;99.90
60727;DHT22;46577;49.004;12.120;2022-12-31T10:44:27;13.30;99.90
60727;DHT22;46577;49.004;12.120;2022-12-31T10:55:29;13.30;99.90
60727;DHT22;46577;49.004;12.120;2022-12-31T10:58:16;13.30;99.90
60727;DHT22;46577;49.004;12.120;2022-12-31T11:17:33;14.40;99.90
60727;DHT22;46577;49.004;12.120;2022-12-31T11:23:44;14.40;99.90
60727;DHT22;46577;49.004;12.120;2022-12-31T11:42:54;14.10;99.90
60727;DHT22;46577;49.004;12.120;2022-12-31T11:52:06;14.20;99.90
60727;DHT22;46577;49.004;12.120;2022-12-31T11:54:44;14.30;99.90
60727;DHT22;46577;49.004;12.120;2022-12-31T11:57:16;14.40;99.90
60727;DHT22;46577;49.004;12.120;2022-12-31T11:59:44;14.60;99.90
60727;DHT22;46577;49.004;12.120;2022-12-31T12:02:20;15.10;99.90
60727;DHT22;46577;49.004;12.120;2022-12-31T12:04:52;15.70;99.90
60727;DHT22;46577;49.004;12.120;2022-12-31T12:07:19;16.50;99.90
60727;DHT22;46577;49.004;12.120;2022-12-31T12:09:45;17.40;99.90
60727;DHT22;46577;49.004;12.120;2022-12-31T12:12:12;18.20;99.90
60727;DHT22;46577;49.004;12.120;2022-12-31T12:14:39;18.70;99.90
60727;DHT22;46577;49.004;12.120;2022-12-31T12:17:07;18.70;99.90
60727;DHT22;46577;49.004;12.120;2022-12-31T12:19:40;18.70;99.90
60727;DHT22;46577;49.004;12.120;2022-12-31T12:22:32;18.90;99.90
60727;DHT22;46577;49.004;12.120;2022-12-31T12:25:05;19.30;99.90
60727;DHT22;46577;49.004;12.120;2022-12-31T12:27:33;19.30;99.90
60727;DHT22;46577;49.004;12.120;2022-12-31T12:30:13;18.90;99.90
60727;DHT22;46577;49.004;12.120;2022-12-31T12:33:00;18.30;99.90
60727;DHT22;46577;49.004;12.120;2022-12-31T12:35:32;17.80;99.90
60727;DHT22;46577;49.004;12.120;2022-12-31T12:38:06;17.50;99.90
60727;DHT22;46577;49.004;12.120;2022-12-31T12:40:33;17.20;99.90
60727;DHT22;46577;49.004;12.120;2022-12-31T12:42:59;16.70;99.90
60727;DHT22;46577;49.004;12.120;2022-12-31T12:45:28;16.50;99.90
60727;DHT22;46577;49.004;12.120;2022-12-31T12:48:02;16.80;99.90
60727;DHT22;46577;49.004;12.120;2022-12-31T12:50:38;17.20;99.90
60727;DHT22;46577;49.004;12.120;2022-12-31T12:53:17;16.40;99.90
60727;DHT22;46577;49.004;12.120;2022-12-31T12:55:49;17.00;99.90
60727;DHT22;46577;49.004;12.120;2022-12-31T13:04:07;17.40;99.90
60727;DHT22;46577;49.004;12.120;2022-12-31T13:06:57;17.10;99.90
60727;DHT22;46577;49.004;12.120;2022-12-31T13:15:23;16.30;99.90
60727;DHT22;46577;49.004;12.120;2022-12-31T13:18:00;16.20;99.90
60727;DHT22;46577;49.004;12.120;2022-12-31T13:20:34;16.00;99.90
60727;DHT22;46577;49.004;12.120;2022-12-31T13:23:25;15.70;99.90
60727;DHT22;46577;49.004;12.120;2022-12-31T13:28:25;15.50;99.90
60727;DHT22;46577;49.004;12.120;2022-12-31T13:30:59;15.30;99.90
60727;DHT22;46577;49.004;12.120;2022-12-31T13:33:36;15.00;99.90
60727;DHT22;46577;49.004;12.120;2022-12-31T13:36:06;14.80;99.90
60727;DHT22;46577;49.004;12.120;2022-12-31T13:38:41;14.70;99.90
60727;DHT22;46577;49.004;12.120;2022-12-31T13:44:22;14.50;99.90
60727;DHT22;46577;49.004;12.120;2022-12-31T13:46:47;14.50;99.90
60727;DHT22;46577;49.004;12.120;2022-12-31T13:52:31;14.30;99.90
60727;DHT22;46577;49.004;12.120;2022-12-31T13:55:19;14.20;99.90
60727;DHT22;46577;49.004;12.120;2022-12-31T13:57:51;14.20;99.90
60727;DHT22;46577;49.004;12.120;2022-12-31T14:00:21;14.30;99.90
60727;DHT22;46577;49.004;12.120;2022-12-31T14:03:12;14.20;99.90
60727;DHT22;46577;49.004;12.120;2022-12-31T14:05:51;14.10;99.90
60727;DHT22;46577;49.004;12.120;2022-12-31T14:08:18;14.00;99.90
60727;DHT22;46577;49.004;12.120;2022-12-31T14:11:03;13.90;99.90
60727;DHT22;46577;49.004;12.120;2022-12-31T14:14:02;13.90;99.90
60727;DHT22;46577;49.004;12.120;2022-12-31T14:16:51;13.70;99.90
60727;DHT22;46577;49.004;12.120;2022-12-31T14:27:04;13.50;99.90
60727;DHT22;46577;49.004;12.120;2022-12-31T14:29:47;13.50;99.90
60727;DHT22;46577;49.004;12.120;2022-12-31T14:38:02;13.00;99.90
60727;DHT22;46577;49.004;12.120;2022-12-31T14:40:57;12.80;99.90
60727;DHT22;46577;49.004;12.120;2022-12-31T14:49:29;12.50;99.90
60727;DHT22;46577;49.004;12.120;2022-12-31T14:52:21;12.40;99.90
60727;DHT22;46577;49.004;12.120;2022-12-31T14:55:02;12.20;99.90
60727;DHT22;46577;49.004;12.120;2022-12-31T14:57:37;12.10;99.90
60727;DHT22;46577;49.004;12.120;2022-12-31T15:02:51;11.90;99.90
60727;DHT22;46577;49.004;12.120;2022-12-31T15:05:23;11.70;99.90
60727;DHT22;46577;49.004;12.120;2022-12-31T15:15:59;11.60;99.90
60727;DHT22;46577;49.004;12.120;2022-12-31T15:24:28;11.50;99.90
60727;DHT22;46577;49.004;12.120;2022-12-31T15:27:03;11.50;99.90
60727;DHT22;46577;49.004;12.120;2022-12-31T15:29:42;11.40;99.90
60727;DHT22;46577;49.004;12.120;2022-12-31T15:32:18;11.30;99.90
60727;DHT22;46577;49.004;12.120;2022-12-31T15:34:44;11.30;99.90
60727;DHT22;46577;49.004;12.120;2022-12-31T15:37:29;11.20;99.90
60727;DHT22;46577;49.004;12.120;2022-12-31T15:40:16;11.20;99.90
60727;DHT22;46577;49.004;12.120;2022-12-31T15:42:51;11.10;99.90
60727;DHT22;46577;49.004;12.120;2022-12-31T15:45:35;11.00;99.90
60727;DHT22;46577;49.004;12.120;2022-12-31T15:48:15;10.90;99.90
60727;DHT22;46577;49.004;12.120;2022-12-31T15:50:44;10.80;99.90
60727;DHT22;46577;49.004;12.120;2022-12-31T15:53:25;10.80;99.90
60727;DHT22;46577;49.004;12.120;2022-12-31T15:55:52;10.80;99.90
60727;DHT22;46577;49.004;12.120;2022-12-31T15:58:22;10.80;99.90
60727;DHT22;46577;49.004;12.120;2022-12-31T16:01:14;10.80;99.90
60727;DHT22;46577;49.004;12.120;2022-12-31T16:03:48;10.70;99.90
60727;DHT22;46577;49.004;12.120;2022-12-31T16:06:15;10.70;99.90
60727;DHT22;46577;49.004;12.120;2022-12-31T16:08:46;10.70;99.90
60727;DHT22;46577;49.004;12.120;2022-12-31T16:11:13;10.70;99.90
60727;DHT22;46577;49.004;12.120;2022-12-31T16:13:43;13.80;99.90
60727;DHT22;46577;49.004;12.120;2022-12-31T16:16:35;10.70;99.90
60727;DHT22;46577;49.004;12.120;2022-12-31T16:19:01;10.70;99.90
60727;DHT22;46577;49.004;12.120;2022-12-31T16:21:31;10.60;99.90
60727;DHT22;46577;49.004;12.120;2022-12-31T16:24:00;10.50;99.90
60727;DHT22;46577;49.004;12.120;2022-12-31T16:26:43;10.50;99.90
60727;DHT22;46577;49.004;12.120;2022-12-31T16:29:14;10.40;99.90
60727;DHT22;46577;49.004;12.120;2022-12-31T16:31:42;10.40;99.90
60727;DHT22;46577;49.004;12.120;2022-12-31T16:34:16;10.30;99.90
60727;DHT22;46577;49.004;12.120;2022-12-31T16:36:55;10.30;99.90
60727;DHT22;46577;49.004;12.120;2022-12-31T16:39:25;10.20;99.90
60727;DHT22;46577;49.004;12.120;2022-12-31T16:41:51;10.20;99.90
60727;DHT22;46577;49.004;12.120;2022-12-31T16:44:25;10.20;99.90
60727;DHT22;46577;49.004;12.120;2022-12-31T16:46:54;10.20;99.90
60727;DHT22;46577;49.004;12.120;2022-12-31T16:49:21;10.10;99.90
60727;DHT22;46577;49.004;12.120;2022-12-31T16:51:47;10.10;99.90
60727;DHT22;46577;49.004;12.120;2022-12-31T16:54:27;10.10;99.90
60727;DHT22;46577;49.004;12.120;2022-12-31T16:56:53;10.00;99.90
60727;DHT22;46577;49.004;12.120;2022-12-31T16:59:42;10.00;99.90
60727;DHT22;46577;49.004;12.120;2022-12-31T17:02:18;10.00;99.90
60727;DHT22;46577;49.004;12.120;2022-12-31T17:04:49;9.90;99.90
60727;DHT22;46577;49.004;12.120;2022-12-31T17:12:32;9.90;99.90
60727;DHT22;46577;49.004;12.120;2022-12-31T17:15:03;9.80;99.90
60727;DHT22;46577;49.004;12.120;2022-12-31T17:17:31;9.80;99.90
60727;DHT22;46577;49.004;12.120;2022-12-31T17:20:02;9.80;99.90
60727;DHT22;46577;49.004;12.120;2022-12-31T17:22:33;9.80;99.90
60727;DHT22;46577;49.004;12.120;2022-12-31T17:25:25;9.80;99.90
60727;DHT22;46577;49.004;12.120;2022-12-31T17:28:04;9.80;99.90
60727;DHT22;46577;49.004;12.120;2022-12-31T17:35:42;9.80;99.90
60727;DHT22;46577;49.004;12.120;2022-12-31T17:40:49;9.70;99.90
60727;DHT22;46577;49.004;12.120;2022-12-31T17:43:17;9.70;99.90
60727;DHT22;46577;49.004;12.120;2022-12-31T17:45:43;9.70;99.90
60727;DHT22;46577;49.004;12.120;2022-12-31T17:48:11;9.70;99.90
60727;DHT22;46577;49.004;12.120;2022-12-31T17:50:48;9.80;99.90
60727;DHT22;46577;49.004;12.120;2022-12-31T17:53:14;9.70;99.90
60727;DHT22;46577;49.004;12.120;2022-12-31T17:55:42;9.70;99.90
60727;DHT22;46577;49.004;12.120;2022-12-31T17:58:17;9.70;99.90
60727;DHT22;46577;49.004;12.120;2022-12-31T18:00:44;9.70;99.90
60727;DHT22;46577;49.004;12.120;2022-12-31T18:03:10;9.60;99.90
60727;DHT22;46577;49.004;12.120;2022-12-31T18:05:35;9.70;99.90
60727;DHT22;46577;49.004;12.120;2022-12-31T18:08:01;9.60;99.90
60727;DHT22;46577;49.004;12.120;2022-12-31T18:10:29;9.70;99.90
60727;DHT22;46577;49.004;12.120;2022-12-31T18:12:56;9.60;99.90
60727;DHT22;46577;49.004;12.120;2022-12-31T18:15:23;9.60;99.90
60727;DHT22;46577;49.004;12.120;2022-12-31T18:17:49;9.60;99.90
60727;DHT22;46577;49.004;12.120;2022-12-31T18:20:16;9.50;99.90
60727;DHT22;46577;49.004;12.120;2022-12-31T18:22:42;9.50;99.90
60727;DHT22;46577;49.004;12.120;2022-12-31T18:25:15;9.50;99.90
60727;DHT22;46577;49.004;12.120;2022-12-31T18:27:42;9.50;99.90
60727;DHT22;46577;49.004;12.120;2022-12-31T18:30:09;9.50;99.90
60727;DHT22;46577;49.004;12.120;2022-12-31T18:32:36;9.40;99.90
60727;DHT22;46577;49.004;12.120;2022-12-31T18:35:01;9.60;99.90
60727;DHT22;46577;49.004;12.120;2022-12-31T18:37:28;9.40;99.90
60727;DHT22;46577;49.004;12.120;2022-12-31T18:39:54;9.40;99.90
60727;DHT22;46577;49.004;12.120;2022-12-31T18:42:27;9.40;99.90
60727;DHT22;46577;49.004;12.120;2022-12-31T18:44:53;7.70;99.90
60727;DHT22;46577;49.004;12.120;2022-12-31T18:47:19;9.40;99.90
60727;DHT22;46577;49.004;12.120;2022-12-31T18:49:48;9.40;99.90
60727;DHT22;46577;49.004;12.120;2022-12-31T18:52:15;9.40;99.90
60727;DHT22;46577;49.004;12.120;2022-12-31T18:54:42;9.30;99.90
60727;DHT22;46577;49.004;12.120;2022-12-31T18:57:10;9.30;99.90
60727;DHT22;46577;49.004;12.120;2022-12-31T18:59:35;9.20;99.90
60727;DHT22;46577;49.004;12.120;2022-12-31T19:02:01;9.20;99.90
60727;DHT22;46577;49.004;12.120;2022-12-31T19:04:27;9.10;99.90
60727;DHT22;46577;49.004;12.120;2022-12-31T19:06:53;9.10;99.90
60727;DHT22;46577;49.004;12.120;2022-12-31T19:09:19;9.00;99.90
60727;DHT22;46577;49.004;12.120;2022-12-31T19:11:44;9.00;99.90
60727;DHT22;46577;49.004;12.120;2022-12-31T19:14:19;8.90;99.90
60727;DHT22;46577;49.004;12.120;2022-12-31T19:16:46;8.90;99.90
60727;DHT22;46577;49.004;12.120;2022-12-31T19:19:13;8.90;99.90
60727;DHT22;46577;49.004;12.120;2022-12-31T19:21:38;8.90;99.90
60727;DHT22;46577;49.004;12.120;2022-12-31T19:24:20;8.90;99.90
60727;DHT22;46577;49.004;12.120;2022-12-31T19:26:46;8.80;99.90
60727;DHT22;46577;49.004;12.120;2022-12-31T19:29:23;8.80;99.90
60727;DHT22;46577;49.004;12.120;2022-12-31T19:31:49;8.70;99.90
60727;DHT22;46577;49.004;12.120;2022-12-31T19:34:15;8.70;99.90
60727;DHT22;46577;49.004;12.120;2022-12-31T19:36:41;8.70;99.90
60727;DHT22;46577;49.004;12.120;2022-12-31T19:39:14;8.60;99.90
60727;DHT22;46577;49.004;12.120;2022-12-31T19:41:41;8.70;99.90
60727;DHT22;46577;49.004;12.120;2022-12-31T19:44:16;8.60;99.90
60727;DHT22;46577;49.004;12.120;2022-12-31T19:46:42;8.60;99.90
60727;DHT22;46577;49.004;12.120;2022-12-31T19:49:12;8.60;99.90
60727;DHT22;46577;49.004;12.120;2022-12-31T19:51:38;8.60;99.90
60727;DHT22;46577;49.004;12.120;2022-12-31T19:54:04;8.60;99.90
60727;DHT22;46577;49.004;12.120;2022-12-31T19:56:30;8.60;99.90
60727;DHT22;46577;49.004;12.120;2022-12-31T19:58:55;8.60;99.90